sensor_id;sensor_type;location;lat;lon;timestamp;P1;durP1;ratioP1;P2;durP2;ratioP2
83346;SDS011;73266;50.882;5.984;2023-12-20T00:01:46;36.77;;;14.67;;
83346;SDS011;73266;50.882;5.984;2023-12-20T00:04:12;37.78;;;13.93;;
83346;SDS011;73266;50.882;5.984;2023-12-20T00:06:37;36.03;;;13.60;;
83346;SDS011;73266;50.882;5.984;2023-12-20T00:09:05;37.80;;;14.88;;
83346;SDS011;73266;50.882;5.984;2023-12-20T00:11:30;34.07;;;12.40;;
83346;SDS011;73266;50.882;5.984;2023-12-20T00:13:56;33.20;;;13.57;;
83346;SDS011;73266;50.882;5.984;2023-12-20T00:16:23;37.15;;;13.40;;
83346;SDS011;73266;50.882;5.984;2023-12-20T00:18:49;32.53;;;11.80;;
83346;SDS011;73266;50.882;5.984;2023-12-20T00:21:14;32.27;;;11.77;;
83346;SDS011;73266;50.882;5.984;2023-12-20T00:23:40;29.10;;;11.48;;
83346;SDS011;73266;50.882;5.984;2023-12-20T00:26:05;27.50;;;10.27;;
83346;SDS011;73266;50.882;5.984;2023-12-20T00:28:30;28.43;;;11.60;;
83346;SDS011;73266;50.882;5.984;2023-12-20T00:30:56;26.20;;;12.20;;
83346;SDS011;73266;50.882;5.984;2023-12-20T00:33:21;23.35;;;9.95;;
83346;SDS011;73266;50.882;5.984;2023-12-20T00:35:49;23.53;;;9.23;;
83346;SDS011;73266;50.882;5.984;2023-12-20T00:38:14;24.40;;;8.50;;
83346;SDS011;73266;50.882;5.984;2023-12-20T00:40:40;20.53;;;7.37;;
83346;SDS011;73266;50.882;5.984;2023-12-20T00:43:05;18.60;;;6.70;;
83346;SDS011;73266;50.882;5.984;2023-12-20T00:45:31;16.90;;;4.83;;
83346;SDS011;73266;50.882;5.984;2023-12-20T00:47:59;12.50;;;4.77;;
83346;SDS011;73266;50.882;5.984;2023-12-20T00:50:24;15.82;;;4.20;;
83346;SDS011;73266;50.882;5.984;2023-12-20T00:52:50;15.00;;;3.70;;
83346;SDS011;73266;50.882;5.984;2023-12-20T00:55:15;14.53;;;2.07;;
83346;SDS011;73266;50.882;5.984;2023-12-20T00:57:41;13.43;;;2.23;;
83346;SDS011;73266;50.882;5.984;2023-12-20T01:00:06;11.20;;;1.95;;
83346;SDS011;73266;50.882;5.984;2023-12-20T01:02:34;14.93;;;3.20;;
83346;SDS011;73266;50.882;5.984;2023-12-20T01:05:00;15.05;;;2.08;;
83346;SDS011;73266;50.882;5.984;2023-12-20T01:07:25;12.20;;;2.07;;
83346;SDS011;73266;50.882;5.984;2023-12-20T01:09:51;15.70;;;2.13;;
83346;SDS011;73266;50.882;5.984;2023-12-20T01:12:16;12.27;;;3.38;;
83346;SDS011;73266;50.882;5.984;2023-12-20T01:14:42;14.57;;;2.93;;
83346;SDS011;73266;50.882;5.984;2023-12-20T01:17:07;13.80;;;2.57;;
83346;SDS011;73266;50.882;5.984;2023-12-20T01:19:32;11.87;;;2.33;;
83346;SDS011;73266;50.882;5.984;2023-12-20T01:22:00;14.30;;;3.15;;
83346;SDS011;73266;50.882;5.984;2023-12-20T01:24:26;13.32;;;2.63;;
83346;SDS011;73266;50.882;5.984;2023-12-20T01:26:51;15.30;;;2.33;;
83346;SDS011;73266;50.882;5.984;2023-12-20T01:29:17;14.57;;;2.60;;
83346;SDS011;73266;50.882;5.984;2023-12-20T01:31:42;15.93;;;2.30;;
83346;SDS011;73266;50.882;5.984;2023-12-20T01:34:08;14.02;;;3.00;;
83346;SDS011;73266;50.882;5.984;2023-12-20T01:36:33;16.93;;;2.67;;
83346;SDS011;73266;50.882;5.984;2023-12-20T01:38:58;17.83;;;2.10;;
83346;SDS011;73266;50.882;5.984;2023-12-20T01:41:24;17.13;;;2.17;;
83346;SDS011;73266;50.882;5.984;2023-12-20T01:43:49;15.30;;;2.85;;
83346;SDS011;73266;50.882;5.984;2023-12-20T01:46:15;17.73;;;2.90;;
83346;SDS011;73266;50.882;5.984;2023-12-20T01:48:41;14.05;;;1.70;;
83346;SDS011;73266;50.882;5.984;2023-12-20T01:51:06;12.47;;;1.53;;
83346;SDS011;73266;50.882;5.984;2023-12-20T01:53:32;16.90;;;1.50;;
83346;SDS011;73266;50.882;5.984;2023-12-20T01:55:58;20.63;;;2.72;;
83346;SDS011;73266;50.882;5.984;2023-12-20T01:58:23;14.98;;;1.75;;
83346;SDS011;73266;50.882;5.984;2023-12-20T02:00:49;12.83;;;2.23;;
83346;SDS011;73266;50.882;5.984;2023-12-20T02:03:15;15.80;;;1.85;;
83346;SDS011;73266;50.882;5.984;2023-12-20T02:05:44;15.50;;;1.98;;
83346;SDS011;73266;50.882;5.984;2023-12-20T02:08:10;13.93;;;2.25;;
83346;SDS011;73266;50.882;5.984;2023-12-20T02:10:36;13.13;;;1.73;;
83346;SDS011;73266;50.882;5.984;2023-12-20T02:13:02;11.53;;;2.10;;
83346;SDS011;73266;50.882;5.984;2023-12-20T02:15:28;16.35;;;2.40;;
83346;SDS011;73266;50.882;5.984;2023-12-20T02:17:53;12.80;;;1.90;;
83346;SDS011;73266;50.882;5.984;2023-12-20T02:20:21;14.07;;;1.60;;
83346;SDS011;73266;50.882;5.984;2023-12-20T02:22:46;11.18;;;1.88;;
83346;SDS011;73266;50.882;5.984;2023-12-20T02:25:14;11.23;;;1.23;;
83346;SDS011;73266;50.882;5.984;2023-12-20T02:27:42;11.63;;;1.65;;
83346;SDS011;73266;50.882;5.984;2023-12-20T02:30:08;15.43;;;1.77;;
83346;SDS011;73266;50.882;5.984;2023-12-20T02:32:37;11.73;;;2.00;;
83346;SDS011;73266;50.882;5.984;2023-12-20T02:35:03;15.37;;;1.87;;
83346;SDS011;73266;50.882;5.984;2023-12-20T02:37:28;10.63;;;2.40;;
83346;SDS011;73266;50.882;5.984;2023-12-20T02:39:54;11.30;;;2.40;;
83346;SDS011;73266;50.882;5.984;2023-12-20T02:42:19;12.47;;;2.63;;
83346;SDS011;73266;50.882;5.984;2023-12-20T02:44:44;11.52;;;1.75;;
83346;SDS011;73266;50.882;5.984;2023-12-20T02:47:10;11.13;;;1.93;;
83346;SDS011;73266;50.882;5.984;2023-12-20T02:49:35;12.73;;;1.90;;
83346;SDS011;73266;50.882;5.984;2023-12-20T02:52:01;14.10;;;1.97;;
83346;SDS011;73266;50.882;5.984;2023-12-20T02:54:26;17.90;;;2.20;;
83346;SDS011;73266;50.882;5.984;2023-12-20T02:56:51;16.73;;;2.43;;
83346;SDS011;73266;50.882;5.984;2023-12-20T02:59:17;15.17;;;2.70;;
83346;SDS011;73266;50.882;5.984;2023-12-20T03:01:45;11.57;;;2.33;;
83346;SDS011;73266;50.882;5.984;2023-12-20T03:04:11;15.23;;;2.42;;
83346;SDS011;73266;50.882;5.984;2023-12-20T03:06:37;20.77;;;2.87;;
83346;SDS011;73266;50.882;5.984;2023-12-20T03:09:02;16.08;;;2.50;;
83346;SDS011;73266;50.882;5.984;2023-12-20T03:11:28;12.30;;;2.33;;
83346;SDS011;73266;50.882;5.984;2023-12-20T03:13:54;18.55;;;3.30;;
83346;SDS011;73266;50.882;5.984;2023-12-20T03:16:20;14.02;;;3.00;;
83346;SDS011;73266;50.882;5.984;2023-12-20T03:18:51;12.50;;;2.60;;
83346;SDS011;73266;50.882;5.984;2023-12-20T03:21:17;19.10;;;2.08;;
83346;SDS011;73266;50.882;5.984;2023-12-20T03:23:42;17.73;;;2.93;;
83346;SDS011;73266;50.882;5.984;2023-12-20T03:26:08;10.93;;;2.13;;
83346;SDS011;73266;50.882;5.984;2023-12-20T03:28:36;18.65;;;2.67;;
83346;SDS011;73266;50.882;5.984;2023-12-20T03:31:02;13.65;;;2.53;;
83346;SDS011;73266;50.882;5.984;2023-12-20T03:33:28;20.70;;;2.60;;
83346;SDS011;73266;50.882;5.984;2023-12-20T03:35:54;16.40;;;2.42;;
83346;SDS011;73266;50.882;5.984;2023-12-20T03:38:20;11.67;;;2.17;;
83346;SDS011;73266;50.882;5.984;2023-12-20T03:40:49;14.23;;;1.95;;
83346;SDS011;73266;50.882;5.984;2023-12-20T03:43:14;14.10;;;1.83;;
83346;SDS011;73266;50.882;5.984;2023-12-20T03:45:40;16.07;;;2.30;;
83346;SDS011;73266;50.882;5.984;2023-12-20T03:48:06;13.02;;;1.90;;
83346;SDS011;73266;50.882;5.984;2023-12-20T03:50:32;10.60;;;2.27;;
83346;SDS011;73266;50.882;5.984;2023-12-20T03:52:59;13.70;;;2.30;;
83346;SDS011;73266;50.882;5.984;2023-12-20T03:55:24;15.33;;;2.20;;
83346;SDS011;73266;50.882;5.984;2023-12-20T03:57:52;13.95;;;2.13;;
83346;SDS011;73266;50.882;5.984;2023-12-20T04:00:17;14.60;;;2.17;;
83346;SDS011;73266;50.882;5.984;2023-12-20T04:02:45;16.45;;;1.75;;
83346;SDS011;73266;50.882;5.984;2023-12-20T04:05:13;11.77;;;1.83;;
83346;SDS011;73266;50.882;5.984;2023-12-20T04:07:38;11.87;;;1.93;;
83346;SDS011;73266;50.882;5.984;2023-12-20T04:10:04;19.00;;;2.03;;
83346;SDS011;73266;50.882;5.984;2023-12-20T04:12:30;17.05;;;1.67;;
83346;SDS011;73266;50.882;5.984;2023-12-20T04:14:57;11.93;;;2.00;;
83346;SDS011;73266;50.882;5.984;2023-12-20T04:17:22;11.70;;;1.70;;
83346;SDS011;73266;50.882;5.984;2023-12-20T04:19:48;11.93;;;1.75;;
83346;SDS011;73266;50.882;5.984;2023-12-20T04:22:14;14.82;;;2.33;;
83346;SDS011;73266;50.882;5.984;2023-12-20T04:24:39;14.03;;;2.10;;
83346;SDS011;73266;50.882;5.984;2023-12-20T04:27:07;13.57;;;2.05;;
83346;SDS011;73266;50.882;5.984;2023-12-20T04:29:38;14.48;;;2.58;;
83346;SDS011;73266;50.882;5.984;2023-12-20T04:32:03;13.10;;;3.03;;
83346;SDS011;73266;50.882;5.984;2023-12-20T04:34:29;12.75;;;2.33;;
83346;SDS011;73266;50.882;5.984;2023-12-20T04:36:55;13.90;;;2.23;;
83346;SDS011;73266;50.882;5.984;2023-12-20T04:39:20;16.83;;;2.33;;
83346;SDS011;73266;50.882;5.984;2023-12-20T04:41:46;13.73;;;2.35;;
83346;SDS011;73266;50.882;5.984;2023-12-20T04:44:12;17.75;;;2.08;;
83346;SDS011;73266;50.882;5.984;2023-12-20T04:46:38;16.23;;;1.40;;
83346;SDS011;73266;50.882;5.984;2023-12-20T04:49:04;16.45;;;1.92;;
83346;SDS011;73266;50.882;5.984;2023-12-20T04:51:29;19.20;;;2.63;;
83346;SDS011;73266;50.882;5.984;2023-12-20T04:53:54;17.70;;;2.13;;
83346;SDS011;73266;50.882;5.984;2023-12-20T04:56:20;11.53;;;2.00;;
83346;SDS011;73266;50.882;5.984;2023-12-20T04:58:45;20.90;;;2.00;;
83346;SDS011;73266;50.882;5.984;2023-12-20T05:01:12;15.30;;;2.65;;
83346;SDS011;73266;50.882;5.984;2023-12-20T05:03:37;7.93;;;1.60;;
83346;SDS011;73266;50.882;5.984;2023-12-20T05:06:03;20.43;;;2.90;;
83346;SDS011;73266;50.882;5.984;2023-12-20T05:08:28;7.47;;;1.10;;
83346;SDS011;73266;50.882;5.984;2023-12-20T05:10:54;12.57;;;1.70;;
83346;SDS011;73266;50.882;5.984;2023-12-20T05:13:20;16.38;;;1.80;;
83346;SDS011;73266;50.882;5.984;2023-12-20T05:15:45;13.33;;;2.23;;
83346;SDS011;73266;50.882;5.984;2023-12-20T05:18:11;10.85;;;1.58;;
83346;SDS011;73266;50.882;5.984;2023-12-20T05:20:38;12.50;;;1.88;;
83346;SDS011;73266;50.882;5.984;2023-12-20T05:23:06;14.23;;;2.10;;
83346;SDS011;73266;50.882;5.984;2023-12-20T05:25:31;12.83;;;1.70;;
83346;SDS011;73266;50.882;5.984;2023-12-20T05:27:57;21.07;;;2.73;;
83346;SDS011;73266;50.882;5.984;2023-12-20T05:30:22;12.48;;;1.63;;
83346;SDS011;73266;50.882;5.984;2023-12-20T05:32:48;13.27;;;2.30;;
83346;SDS011;73266;50.882;5.984;2023-12-20T05:35:13;16.00;;;2.67;;
83346;SDS011;73266;50.882;5.984;2023-12-20T05:37:39;19.17;;;2.45;;
83346;SDS011;73266;50.882;5.984;2023-12-20T05:40:04;14.87;;;2.60;;
83346;SDS011;73266;50.882;5.984;2023-12-20T05:42:30;18.13;;;3.15;;
83346;SDS011;73266;50.882;5.984;2023-12-20T05:44:55;11.50;;;2.60;;
83346;SDS011;73266;50.882;5.984;2023-12-20T05:47:21;20.00;;;3.20;;
83346;SDS011;73266;50.882;5.984;2023-12-20T05:49:49;12.77;;;2.40;;
83346;SDS011;73266;50.882;5.984;2023-12-20T05:52:15;16.33;;;2.60;;
83346;SDS011;73266;50.882;5.984;2023-12-20T05:54:40;13.17;;;2.50;;
83346;SDS011;73266;50.882;5.984;2023-12-20T05:57:06;11.77;;;1.87;;
83346;SDS011;73266;50.882;5.984;2023-12-20T05:59:31;13.43;;;2.50;;
83346;SDS011;73266;50.882;5.984;2023-12-20T06:01:57;12.50;;;2.40;;
83346;SDS011;73266;50.882;5.984;2023-12-20T06:04:22;18.00;;;3.17;;
83346;SDS011;73266;50.882;5.984;2023-12-20T06:06:47;18.53;;;3.00;;
83346;SDS011;73266;50.882;5.984;2023-12-20T06:09:15;11.90;;;3.55;;
83346;SDS011;73266;50.882;5.984;2023-12-20T06:11:40;13.90;;;2.37;;
83346;SDS011;73266;50.882;5.984;2023-12-20T06:14:06;15.27;;;2.57;;
83346;SDS011;73266;50.882;5.984;2023-12-20T06:16:31;18.50;;;2.92;;
83346;SDS011;73266;50.882;5.984;2023-12-20T06:18:57;17.50;;;2.70;;
83346;SDS011;73266;50.882;5.984;2023-12-20T06:21:22;20.93;;;2.60;;
83346;SDS011;73266;50.882;5.984;2023-12-20T06:23:48;11.57;;;2.60;;
83346;SDS011;73266;50.882;5.984;2023-12-20T06:26:13;17.97;;;2.43;;
83346;SDS011;73266;50.882;5.984;2023-12-20T06:28:39;13.90;;;2.60;;
83346;SDS011;73266;50.882;5.984;2023-12-20T06:31:04;19.07;;;2.80;;
83346;SDS011;73266;50.882;5.984;2023-12-20T06:33:29;22.25;;;2.85;;
83346;SDS011;73266;50.882;5.984;2023-12-20T06:35:58;7.70;;;2.10;;
83346;SDS011;73266;50.882;5.984;2023-12-20T06:38:24;16.15;;;2.58;;
83346;SDS011;73266;50.882;5.984;2023-12-20T06:40:49;15.27;;;2.30;;
83346;SDS011;73266;50.882;5.984;2023-12-20T06:43:15;13.83;;;2.57;;
83346;SDS011;73266;50.882;5.984;2023-12-20T06:45:40;15.63;;;2.43;;
83346;SDS011;73266;50.882;5.984;2023-12-20T06:48:06;16.17;;;3.28;;
83346;SDS011;73266;50.882;5.984;2023-12-20T06:50:32;15.33;;;2.87;;
83346;SDS011;73266;50.882;5.984;2023-12-20T06:52:58;21.02;;;2.72;;
83346;SDS011;73266;50.882;5.984;2023-12-20T06:55:23;20.50;;;4.00;;
83346;SDS011;73266;50.882;5.984;2023-12-20T06:57:48;16.57;;;3.13;;
83346;SDS011;73266;50.882;5.984;2023-12-20T07:00:14;20.13;;;3.40;;
83346;SDS011;73266;50.882;5.984;2023-12-20T07:02:44;20.40;;;2.80;;
83346;SDS011;73266;50.882;5.984;2023-12-20T07:05:20;13.93;;;2.22;;
83346;SDS011;73266;50.882;5.984;2023-12-20T07:07:46;12.32;;;2.45;;
83346;SDS011;73266;50.882;5.984;2023-12-20T07:10:14;16.75;;;2.83;;
83346;SDS011;73266;50.882;5.984;2023-12-20T07:12:39;19.80;;;3.17;;
83346;SDS011;73266;50.882;5.984;2023-12-20T07:15:07;17.10;;;3.88;;
83346;SDS011;73266;50.882;5.984;2023-12-20T07:17:33;19.97;;;2.77;;
83346;SDS011;73266;50.882;5.984;2023-12-20T07:19:59;24.63;;;4.53;;
83346;SDS011;73266;50.882;5.984;2023-12-20T07:22:28;16.23;;;2.88;;
83346;SDS011;73266;50.882;5.984;2023-12-20T07:24:54;15.90;;;2.60;;
83346;SDS011;73266;50.882;5.984;2023-12-20T07:27:19;7.53;;;1.77;;
83346;SDS011;73266;50.882;5.984;2023-12-20T07:29:45;13.87;;;2.50;;
83346;SDS011;73266;50.882;5.984;2023-12-20T07:32:10;19.47;;;3.60;;
83346;SDS011;73266;50.882;5.984;2023-12-20T07:34:35;16.73;;;3.27;;
83346;SDS011;73266;50.882;5.984;2023-12-20T07:37:01;18.83;;;3.00;;
83346;SDS011;73266;50.882;5.984;2023-12-20T07:39:26;25.37;;;3.87;;
83346;SDS011;73266;50.882;5.984;2023-12-20T07:41:52;9.37;;;2.80;;
83346;SDS011;73266;50.882;5.984;2023-12-20T07:44:19;15.23;;;2.72;;
83346;SDS011;73266;50.882;5.984;2023-12-20T07:46:45;16.50;;;4.00;;
83346;SDS011;73266;50.882;5.984;2023-12-20T07:49:10;11.30;;;2.77;;
83346;SDS011;73266;50.882;5.984;2023-12-20T07:51:36;18.15;;;2.90;;
83346;SDS011;73266;50.882;5.984;2023-12-20T07:54:01;15.10;;;3.13;;
83346;SDS011;73266;50.882;5.984;2023-12-20T07:56:28;16.05;;;2.97;;
83346;SDS011;73266;50.882;5.984;2023-12-20T07:58:54;12.50;;;3.60;;
83346;SDS011;73266;50.882;5.984;2023-12-20T08:01:19;17.67;;;3.13;;
83346;SDS011;73266;50.882;5.984;2023-12-20T08:03:45;19.88;;;4.68;;
83346;SDS011;73266;50.882;5.984;2023-12-20T08:06:11;15.93;;;3.35;;
83346;SDS011;73266;50.882;5.984;2023-12-20T08:08:36;14.87;;;2.23;;
83346;SDS011;73266;50.882;5.984;2023-12-20T08:11:02;20.23;;;3.73;;
83346;SDS011;73266;50.882;5.984;2023-12-20T08:13:27;14.65;;;2.88;;
83346;SDS011;73266;50.882;5.984;2023-12-20T08:15:53;20.50;;;2.70;;
83346;SDS011;73266;50.882;5.984;2023-12-20T08:18:19;9.63;;;1.70;;
83346;SDS011;73266;50.882;5.984;2023-12-20T08:20:44;13.23;;;2.57;;
83346;SDS011;73266;50.882;5.984;2023-12-20T08:23:13;13.18;;;2.97;;
83346;SDS011;73266;50.882;5.984;2023-12-20T08:25:38;17.30;;;2.97;;
83346;SDS011;73266;50.882;5.984;2023-12-20T08:28:04;18.97;;;3.20;;
83346;SDS011;73266;50.882;5.984;2023-12-20T08:30:30;10.38;;;2.13;;
83346;SDS011;73266;50.882;5.984;2023-12-20T08:32:56;17.38;;;2.75;;
83346;SDS011;73266;50.882;5.984;2023-12-20T08:35:21;13.87;;;2.30;;
83346;SDS011;73266;50.882;5.984;2023-12-20T08:37:47;18.33;;;2.47;;
83346;SDS011;73266;50.882;5.984;2023-12-20T08:40:12;11.55;;;2.20;;
83346;SDS011;73266;50.882;5.984;2023-12-20T08:42:40;12.57;;;2.17;;
83346;SDS011;73266;50.882;5.984;2023-12-20T08:45:05;16.70;;;2.67;;
83346;SDS011;73266;50.882;5.984;2023-12-20T08:47:33;13.83;;;3.50;;
83346;SDS011;73266;50.882;5.984;2023-12-20T08:49:59;17.63;;;3.20;;
83346;SDS011;73266;50.882;5.984;2023-12-20T08:52:27;17.70;;;2.87;;
83346;SDS011;73266;50.882;5.984;2023-12-20T08:54:53;15.35;;;3.20;;
83346;SDS011;73266;50.882;5.984;2023-12-20T08:57:21;16.90;;;2.77;;
83346;SDS011;73266;50.882;5.984;2023-12-20T08:59:50;8.57;;;1.77;;
83346;SDS011;73266;50.882;5.984;2023-12-20T09:02:18;19.92;;;2.78;;
83346;SDS011;73266;50.882;5.984;2023-12-20T09:04:43;12.37;;;2.30;;
83346;SDS011;73266;50.882;5.984;2023-12-20T09:07:20;13.10;;;2.47;;
83346;SDS011;73266;50.882;5.984;2023-12-20T09:09:47;10.52;;;1.98;;
83346;SDS011;73266;50.882;5.984;2023-12-20T09:12:12;10.83;;;2.07;;
83346;SDS011;73266;50.882;5.984;2023-12-20T09:14:38;15.80;;;2.22;;
83346;SDS011;73266;50.882;5.984;2023-12-20T09:17:03;13.07;;;1.77;;
83346;SDS011;73266;50.882;5.984;2023-12-20T09:19:29;12.10;;;2.37;;
83346;SDS011;73266;50.882;5.984;2023-12-20T09:21:54;12.95;;;1.77;;
83346;SDS011;73266;50.882;5.984;2023-12-20T09:24:20;15.83;;;2.20;;
83346;SDS011;73266;50.882;5.984;2023-12-20T09:26:48;15.70;;;2.07;;
83346;SDS011;73266;50.882;5.984;2023-12-20T09:29:13;10.90;;;2.15;;
83346;SDS011;73266;50.882;5.984;2023-12-20T09:31:42;11.23;;;1.83;;
83346;SDS011;73266;50.882;5.984;2023-12-20T09:34:08;12.30;;;1.85;;
83346;SDS011;73266;50.882;5.984;2023-12-20T09:36:34;12.13;;;1.80;;
83346;SDS011;73266;50.882;5.984;2023-12-20T09:39:11;12.02;;;1.77;;
83346;SDS011;73266;50.882;5.984;2023-12-20T09:41:37;15.77;;;1.67;;
83346;SDS011;73266;50.882;5.984;2023-12-20T09:44:08;11.60;;;1.90;;
83346;SDS011;73266;50.882;5.984;2023-12-20T09:46:39;16.42;;;1.52;;
83346;SDS011;73266;50.882;5.984;2023-12-20T09:49:08;13.82;;;2.00;;
83346;SDS011;73266;50.882;5.984;2023-12-20T09:51:37;13.45;;;1.55;;
83346;SDS011;73266;50.882;5.984;2023-12-20T09:54:05;16.33;;;1.73;;
83346;SDS011;73266;50.882;5.984;2023-12-20T09:56:31;10.43;;;1.73;;
83346;SDS011;73266;50.882;5.984;2023-12-20T09:58:56;10.57;;;1.07;;
83346;SDS011;73266;50.882;5.984;2023-12-20T10:01:22;11.60;;;1.67;;
83346;SDS011;73266;50.882;5.984;2023-12-20T10:03:51;14.30;;;2.38;;
83346;SDS011;73266;50.882;5.984;2023-12-20T10:06:19;15.65;;;1.92;;
83346;SDS011;73266;50.882;5.984;2023-12-20T10:08:45;13.33;;;1.40;;
83346;SDS011;73266;50.882;5.984;2023-12-20T10:11:10;18.83;;;2.30;;
83346;SDS011;73266;50.882;5.984;2023-12-20T10:13:39;11.50;;;1.50;;
83346;SDS011;73266;50.882;5.984;2023-12-20T10:16:06;7.45;;;1.80;;
83346;SDS011;73266;50.882;5.984;2023-12-20T10:18:32;15.60;;;2.20;;
83346;SDS011;73266;50.882;5.984;2023-12-20T10:21:01;10.02;;;1.70;;
83346;SDS011;73266;50.882;5.984;2023-12-20T10:23:26;11.87;;;1.77;;
83346;SDS011;73266;50.882;5.984;2023-12-20T10:25:58;9.83;;;1.30;;
83346;SDS011;73266;50.882;5.984;2023-12-20T10:28:24;12.98;;;2.53;;
83346;SDS011;73266;50.882;5.984;2023-12-20T10:30:53;11.93;;;1.42;;
83346;SDS011;73266;50.882;5.984;2023-12-20T10:33:25;15.15;;;2.25;;
83346;SDS011;73266;50.882;5.984;2023-12-20T10:35:52;15.23;;;2.17;;
83346;SDS011;73266;50.882;5.984;2023-12-20T10:38:18;12.27;;;2.00;;
83346;SDS011;73266;50.882;5.984;2023-12-20T10:40:43;10.10;;;1.70;;
83346;SDS011;73266;50.882;5.984;2023-12-20T10:43:13;13.02;;;2.40;;
83346;SDS011;73266;50.882;5.984;2023-12-20T10:45:41;14.98;;;1.85;;
83346;SDS011;73266;50.882;5.984;2023-12-20T10:48:09;10.95;;;1.30;;
83346;SDS011;73266;50.882;5.984;2023-12-20T10:50:36;8.43;;;1.50;;
83346;SDS011;73266;50.882;5.984;2023-12-20T10:53:03;15.40;;;2.50;;
83346;SDS011;73266;50.882;5.984;2023-12-20T10:55:29;10.45;;;1.60;;
83346;SDS011;73266;50.882;5.984;2023-12-20T10:57:54;14.07;;;1.90;;
83346;SDS011;73266;50.882;5.984;2023-12-20T11:00:25;11.45;;;1.70;;
83346;SDS011;73266;50.882;5.984;2023-12-20T11:02:51;15.67;;;1.80;;
83346;SDS011;73266;50.882;5.984;2023-12-20T11:08:09;11.07;;;1.58;;
83346;SDS011;73266;50.882;5.984;2023-12-20T11:13:58;12.73;;;1.58;;
83346;SDS011;73266;50.882;5.984;2023-12-20T11:16:27;15.90;;;1.67;;
83346;SDS011;73266;50.882;5.984;2023-12-20T11:18:52;13.38;;;1.80;;
83346;SDS011;73266;50.882;5.984;2023-12-20T11:21:17;4.67;;;0.97;;
83346;SDS011;73266;50.882;5.984;2023-12-20T11:23:43;15.07;;;1.50;;
83346;SDS011;73266;50.882;5.984;2023-12-20T11:26:08;13.90;;;1.63;;
83346;SDS011;73266;50.882;5.984;2023-12-20T11:28:34;9.07;;;1.63;;
83346;SDS011;73266;50.882;5.984;2023-12-20T11:31:00;9.83;;;1.77;;
83346;SDS011;73266;50.882;5.984;2023-12-20T11:33:29;10.73;;;1.98;;
83346;SDS011;73266;50.882;5.984;2023-12-20T11:35:56;13.68;;;1.40;;
83346;SDS011;73266;50.882;5.984;2023-12-20T11:38:22;11.65;;;1.40;;
83346;SDS011;73266;50.882;5.984;2023-12-20T11:40:48;11.80;;;1.97;;
83346;SDS011;73266;50.882;5.984;2023-12-20T11:43:30;15.23;;;1.98;;
83346;SDS011;73266;50.882;5.984;2023-12-20T11:46:01;11.77;;;1.63;;
83346;SDS011;73266;50.882;5.984;2023-12-20T11:48:28;13.20;;;1.85;;
83346;SDS011;73266;50.882;5.984;2023-12-20T11:50:53;12.67;;;1.83;;
83346;SDS011;73266;50.882;5.984;2023-12-20T11:53:19;14.80;;;2.27;;
83346;SDS011;73266;50.882;5.984;2023-12-20T11:55:47;14.27;;;1.67;;
83346;SDS011;73266;50.882;5.984;2023-12-20T11:58:13;12.20;;;2.00;;
83346;SDS011;73266;50.882;5.984;2023-12-20T12:00:41;14.88;;;2.45;;
83346;SDS011;73266;50.882;5.984;2023-12-20T12:03:06;12.63;;;1.63;;
83346;SDS011;73266;50.882;5.984;2023-12-20T12:05:34;7.83;;;1.67;;
83346;SDS011;73266;50.882;5.984;2023-12-20T12:08:01;12.70;;;2.05;;
83346;SDS011;73266;50.882;5.984;2023-12-20T12:10:27;5.88;;;1.42;;
83346;SDS011;73266;50.882;5.984;2023-12-20T12:12:53;10.57;;;1.80;;
83346;SDS011;73266;50.882;5.984;2023-12-20T12:15:19;14.98;;;2.35;;
83346;SDS011;73266;50.882;5.984;2023-12-20T12:17:52;13.57;;;1.97;;
83346;SDS011;73266;50.882;5.984;2023-12-20T12:20:24;13.52;;;2.08;;
83346;SDS011;73266;50.882;5.984;2023-12-20T12:25:25;14.80;;;2.22;;
83346;SDS011;73266;50.882;5.984;2023-12-20T12:27:51;11.67;;;1.73;;
83346;SDS011;73266;50.882;5.984;2023-12-20T12:30:18;15.50;;;1.83;;
83346;SDS011;73266;50.882;5.984;2023-12-20T12:32:48;15.13;;;2.27;;
83346;SDS011;73266;50.882;5.984;2023-12-20T12:35:14;13.32;;;2.28;;
83346;SDS011;73266;50.882;5.984;2023-12-20T12:37:40;13.07;;;2.10;;
83346;SDS011;73266;50.882;5.984;2023-12-20T12:40:16;9.60;;;1.65;;
83346;SDS011;73266;50.882;5.984;2023-12-20T12:42:43;17.33;;;2.35;;
83346;SDS011;73266;50.882;5.984;2023-12-20T12:45:09;14.82;;;2.53;;
83346;SDS011;73266;50.882;5.984;2023-12-20T12:47:36;15.57;;;2.65;;
83346;SDS011;73266;50.882;5.984;2023-12-20T12:50:02;13.47;;;2.47;;
83346;SDS011;73266;50.882;5.984;2023-12-20T12:52:28;9.70;;;1.88;;
83346;SDS011;73266;50.882;5.984;2023-12-20T12:54:55;16.02;;;2.55;;
83346;SDS011;73266;50.882;5.984;2023-12-20T12:57:21;11.30;;;2.10;;
83346;SDS011;73266;50.882;5.984;2023-12-20T12:59:46;10.40;;;1.97;;
83346;SDS011;73266;50.882;5.984;2023-12-20T13:02:12;9.63;;;2.05;;
83346;SDS011;73266;50.882;5.984;2023-12-20T13:04:41;15.73;;;3.30;;
83346;SDS011;73266;50.882;5.984;2023-12-20T13:07:07;8.75;;;2.03;;
83346;SDS011;73266;50.882;5.984;2023-12-20T13:09:33;15.02;;;3.45;;
83346;SDS011;73266;50.882;5.984;2023-12-20T13:11:59;9.52;;;2.17;;
83346;SDS011;73266;50.882;5.984;2023-12-20T13:14:24;11.03;;;2.73;;
83346;SDS011;73266;50.882;5.984;2023-12-20T13:16:50;17.70;;;3.00;;
83346;SDS011;73266;50.882;5.984;2023-12-20T13:19:15;12.68;;;2.90;;
83346;SDS011;73266;50.882;5.984;2023-12-20T13:21:43;10.73;;;2.47;;
83346;SDS011;73266;50.882;5.984;2023-12-20T13:24:08;10.90;;;2.42;;
83346;SDS011;73266;50.882;5.984;2023-12-20T13:26:34;17.87;;;2.70;;
83346;SDS011;73266;50.882;5.984;2023-12-20T13:29:02;17.80;;;2.67;;
83346;SDS011;73266;50.882;5.984;2023-12-20T13:31:27;17.52;;;3.70;;
83346;SDS011;73266;50.882;5.984;2023-12-20T13:33:53;16.08;;;2.90;;
83346;SDS011;73266;50.882;5.984;2023-12-20T13:36:20;19.17;;;2.97;;
83346;SDS011;73266;50.882;5.984;2023-12-20T13:38:48;16.15;;;2.70;;
83346;SDS011;73266;50.882;5.984;2023-12-20T13:41:13;15.60;;;3.00;;
83346;SDS011;73266;50.882;5.984;2023-12-20T13:43:39;15.55;;;2.88;;
83346;SDS011;73266;50.882;5.984;2023-12-20T13:46:04;11.63;;;2.20;;
83346;SDS011;73266;50.882;5.984;2023-12-20T13:48:30;14.13;;;2.60;;
83346;SDS011;73266;50.882;5.984;2023-12-20T13:50:55;15.10;;;2.30;;
83346;SDS011;73266;50.882;5.984;2023-12-20T13:53:21;22.13;;;3.70;;
83346;SDS011;73266;50.882;5.984;2023-12-20T13:55:46;12.87;;;2.10;;
83346;SDS011;73266;50.882;5.984;2023-12-20T13:58:12;18.43;;;3.07;;
83346;SDS011;73266;50.882;5.984;2023-12-20T14:00:40;14.52;;;2.80;;
83346;SDS011;73266;50.882;5.984;2023-12-20T14:03:05;13.10;;;2.75;;
83346;SDS011;73266;50.882;5.984;2023-12-20T14:05:30;9.17;;;1.93;;
83346;SDS011;73266;50.882;5.984;2023-12-20T14:07:56;17.00;;;3.10;;
83346;SDS011;73266;50.882;5.984;2023-12-20T14:10:25;12.15;;;3.13;;
83346;SDS011;73266;50.882;5.984;2023-12-20T14:12:56;15.52;;;2.30;;
83346;SDS011;73266;50.882;5.984;2023-12-20T14:15:22;17.77;;;2.80;;
83346;SDS011;73266;50.882;5.984;2023-12-20T14:17:50;15.93;;;2.58;;
83346;SDS011;73266;50.882;5.984;2023-12-20T14:20:15;12.83;;;2.53;;
83346;SDS011;73266;50.882;5.984;2023-12-20T14:22:41;12.27;;;2.10;;
83346;SDS011;73266;50.882;5.984;2023-12-20T14:25:13;12.98;;;2.40;;
83346;SDS011;73266;50.882;5.984;2023-12-20T14:27:39;19.80;;;3.05;;
83346;SDS011;73266;50.882;5.984;2023-12-20T14:30:05;13.38;;;2.60;;
83346;SDS011;73266;50.882;5.984;2023-12-20T14:32:31;11.93;;;2.67;;
83346;SDS011;73266;50.882;5.984;2023-12-20T14:34:58;10.23;;;1.97;;
83346;SDS011;73266;50.882;5.984;2023-12-20T14:37:23;21.05;;;3.30;;
83346;SDS011;73266;50.882;5.984;2023-12-20T14:39:49;15.43;;;2.83;;